createdAt,value
2018-05-10T00:00:53.878Z,72.40
2018-05-10T00:03:21.958Z,71.90
2018-05-10T00:05:50.776Z,71.90
2018-05-10T00:08:20.804Z,71.60
2018-05-10T00:10:50.008Z,71.40
2018-05-10T00:13:18.275Z,71.80
2018-05-10T00:15:46.563Z,71.70
2018-05-10T00:18:14.832Z,72.10
2018-05-10T00:20:43.906Z,71.40
2018-05-10T00:23:12.184Z,72.10
2018-05-10T00:25:41.291Z,72.90
2018-05-10T00:28:09.929Z,71.80
2018-05-10T00:30:38.777Z,72.60
2018-05-10T00:33:08.401Z,72.20
2018-05-10T00:35:36.480Z,73.00
2018-05-10T00:38:04.756Z,72.90
2018-05-10T00:40:33.812Z,74.20
2018-05-10T00:43:02.081Z,73.50
2018-05-10T00:45:30.374Z,73.70
2018-05-10T00:47:58.670Z,74.00
2018-05-10T00:50:28.164Z,75.10
2018-05-10T00:52:56.427Z,74.20
2018-05-10T00:55:24.499Z,75.40
2018-05-10T00:57:53.468Z,74.80
2018-05-10T01:00:21.739Z,74.70
2018-05-10T01:02:50.027Z,76.00
2018-05-10T01:05:19.640Z,75.80
2018-05-10T01:07:47.902Z,75.70
2018-05-10T01:10:16.195Z,75.10
2018-05-10T01:12:45.402Z,76.20
2018-05-10T01:15:13.690Z,75.00
2018-05-10T01:17:41.971Z,75.30
2018-05-10T01:20:10.251Z,76.10
2018-05-10T01:22:38.777Z,75.80
2018-05-10T01:25:07.397Z,76.20
2018-05-10T01:27:35.662Z,77.00
2018-05-10T01:30:03.487Z,76.20
2018-05-10T01:32:32.661Z,77.70
2018-05-10T01:35:12.304Z,77.90
2018-05-10T01:37:42.179Z,77.10
2018-05-10T01:40:10.967Z,77.10
2018-05-10T01:42:39.247Z,77.70
2018-05-10T01:45:07.592Z,77.90
2018-05-10T01:47:35.849Z,77.90
2018-05-10T01:50:04.132Z,78.80
2018-05-10T01:52:32.398Z,78.80
2018-05-10T01:55:00.682Z,78.90
2018-05-10T01:57:28.947Z,79.40
2018-05-10T01:59:57.244Z,79.60
2018-05-10T02:02:25.512Z,79.40
2018-05-10T02:04:53.594Z,80.10
2018-05-10T02:07:22.826Z,80.50
2018-05-10T02:09:51.082Z,80.10
2018-05-10T02:12:19.131Z,80.70
2018-05-10T02:14:47.456Z,80.40
2018-05-10T02:17:16.426Z,80.90
2018-05-10T02:19:45.132Z,80.90
2018-05-10T02:22:13.260Z,80.80
2018-05-10T02:24:41.524Z,80.50
2018-05-10T02:27:09.806Z,80.90
2018-05-10T02:29:38.707Z,81.20
2018-05-10T02:32:07.100Z,81.00
2018-05-10T02:34:36.210Z,81.20
2018-05-10T02:37:04.497Z,81.80
2018-05-10T02:39:32.768Z,81.60
2018-05-10T02:42:01.059Z,81.40
2018-05-10T02:44:29.331Z,82.40
2018-05-10T02:46:58.414Z,82.60
2018-05-10T02:49:26.681Z,82.50
2018-05-10T02:51:56.051Z,83.00
2018-05-10T02:54:24.310Z,82.70
2018-05-10T02:56:52.621Z,83.10
2018-05-10T02:59:20.887Z,82.70
2018-05-10T03:01:48.968Z,83.10
2018-05-10T03:04:17.296Z,83.30
2018-05-10T03:06:46.325Z,83.70
2018-05-10T03:09:14.589Z,83.50
2018-05-10T03:11:42.912Z,82.90
2018-05-10T03:14:11.568Z,82.60
2018-05-10T03:16:39.847Z,82.60
2018-05-10T03:19:08.111Z,83.10
2018-05-10T03:21:36.408Z,83.30
2018-05-10T03:24:06.587Z,83.70
2018-05-10T03:26:34.882Z,83.60
2018-05-10T03:29:04.274Z,83.80
2018-05-10T03:31:32.565Z,83.80
2018-05-10T03:34:00.827Z,83.80
2018-05-10T03:36:29.877Z,83.80
2018-05-10T03:38:58.154Z,83.80
2018-05-10T03:41:26.436Z,83.60
2018-05-10T03:43:55.628Z,83.20
2018-05-10T03:46:23.936Z,83.30
2018-05-10T03:48:52.384Z,83.30
2018-05-10T03:51:20.678Z,83.00
2018-05-10T03:53:48.948Z,83.40
2018-05-10T03:56:17.238Z,83.10
2018-05-10T03:58:45.500Z,83.20
2018-05-10T04:01:13.784Z,83.20
2018-05-10T04:03:54.195Z,83.00
2018-05-10T04:06:34.496Z,83.00
2018-05-10T04:09:14.016Z,83.00
2018-05-10T04:11:42.345Z,83.20
2018-05-10T04:14:12.188Z,83.20
2018-05-10T04:16:41.975Z,83.10
2018-05-10T04:19:10.042Z,83.50
2018-05-10T04:21:38.460Z,83.50
2018-05-10T04:24:07.856Z,83.80
2018-05-10T04:26:36.146Z,83.90
2018-05-10T04:29:04.758Z,83.80
2018-05-10T04:31:33.039Z,84.20
2018-05-10T04:34:01.320Z,84.00
2018-05-10T04:36:29.815Z,84.20
2018-05-10T04:38:59.027Z,84.10
2018-05-10T04:41:28.171Z,84.10
2018-05-10T04:43:56.432Z,84.10
2018-05-10T04:46:25.611Z,84.00
2018-05-10T04:48:53.879Z,84.20
2018-05-10T04:51:22.273Z,83.70
2018-05-10T04:53:51.982Z,83.80
2018-05-10T04:56:20.072Z,83.60
2018-05-10T04:58:48.213Z,83.60
2018-05-10T05:01:16.484Z,83.10
2018-05-10T05:03:44.770Z,84.30
2018-05-10T05:06:13.029Z,83.60
2018-05-10T05:08:41.377Z,83.60
2018-05-10T05:11:09.947Z,83.20
2018-05-10T05:13:38.232Z,82.90
2018-05-10T05:16:07.766Z,83.80
2018-05-10T05:18:36.096Z,82.80
2018-05-10T05:21:04.364Z,82.60
2018-05-10T05:23:33.586Z,82.10
2018-05-10T05:26:02.910Z,82.40
2018-05-10T05:28:32.747Z,82.70
2018-05-10T05:31:01.065Z,82.70
2018-05-10T05:33:30.127Z,85.90
2018-05-10T05:35:59.323Z,85.80
2018-05-10T05:38:27.633Z,85.20
2018-05-10T05:40:55.683Z,86.20
2018-05-10T05:43:24.428Z,87.30
2018-05-10T05:45:54.353Z,87.60
2018-05-10T05:48:22.427Z,87.60
2018-05-10T05:50:51.623Z,88.00
2018-05-10T05:53:20.447Z,87.10
2018-05-10T05:55:48.739Z,87.30
2018-05-10T05:58:17.028Z,87.60
2018-05-10T06:00:46.489Z,87.10
2018-05-10T06:03:14.947Z,88.50
2018-05-10T06:05:43.229Z,87.70
2018-05-10T06:08:11.536Z,87.40
2018-05-10T06:10:40.808Z,87.70
2018-05-10T06:13:09.096Z,88.50
2018-05-10T06:15:37.257Z,89.50
2018-05-10T06:18:05.905Z,90.00
2018-05-10T06:20:35.666Z,89.50
2018-05-10T06:23:03.958Z,90.10
2018-05-10T06:25:32.220Z,90.70
2018-05-10T06:28:00.601Z,90.40
2018-05-10T06:30:29.919Z,90.30
2018-05-10T06:33:00.142Z,90.30
2018-05-10T06:35:29.559Z,90.60
2018-05-10T06:37:57.834Z,90.00
2018-05-10T06:40:27.678Z,87.60
2018-05-10T06:42:55.971Z,87.60
2018-05-10T06:45:24.238Z,86.50
2018-05-10T06:47:55.148Z,82.30
2018-05-10T06:50:25.224Z,82.30
2018-05-10T06:52:53.895Z,73.80
2018-05-10T06:55:21.935Z,70.10
2018-05-10T06:57:50.436Z,65.60
2018-05-10T07:00:18.715Z,61.50
2018-05-10T07:02:47.016Z,59.70
2018-05-10T07:05:15.270Z,60.30
2018-05-10T07:07:43.556Z,62.10
2018-05-10T07:10:13.303Z,68.70
2018-05-10T07:12:41.367Z,68.70
2018-05-10T07:15:09.632Z,71.00
2018-05-10T07:17:37.674Z,70.00
2018-05-10T07:20:05.972Z,73.00
2018-05-10T07:22:34.248Z,72.70
2018-05-10T07:25:02.600Z,74.70
2018-05-10T07:27:31.033Z,75.50
2018-05-10T07:29:59.322Z,74.40
2018-05-10T07:32:28.563Z,75.60
2018-05-10T07:34:56.852Z,76.40
2018-05-10T07:37:25.902Z,76.00
2018-05-10T07:39:54.190Z,75.90
2018-05-10T07:42:22.468Z,74.00
2018-05-10T07:44:51.801Z,74.30
2018-05-10T07:47:20.885Z,73.40
2018-05-10T07:49:49.324Z,72.80
2018-05-10T07:52:17.610Z,73.00
2018-05-10T07:54:46.616Z,71.90
2018-05-10T07:57:14.879Z,69.70
2018-05-10T07:59:43.170Z,67.70
2018-05-10T08:02:11.450Z,67.70
2018-05-10T08:04:39.915Z,67.30
2018-05-10T08:07:07.948Z,65.20
2018-05-10T08:09:36.231Z,62.70
2018-05-10T08:12:04.495Z,63.90
2018-05-10T08:14:32.778Z,64.10
2018-05-10T08:17:01.055Z,64.90
2018-05-10T08:19:30.104Z,64.70
2018-05-10T08:21:58.364Z,65.50
2018-05-10T08:24:26.663Z,66.40
2018-05-10T08:26:55.696Z,65.50
2018-05-10T08:29:23.492Z,65.40
2018-05-10T08:31:51.774Z,67.30
2018-05-10T08:34:19.841Z,67.50
2018-05-10T08:36:48.233Z,68.70
2018-05-10T08:39:16.600Z,69.10
2018-05-10T08:41:44.884Z,66.90
2018-05-10T08:44:13.163Z,64.50
2018-05-10T08:46:41.436Z,64.30
2018-05-10T08:49:09.716Z,65.90
2018-05-10T08:51:37.991Z,64.60
2018-05-10T08:54:06.289Z,63.60
2018-05-10T08:56:34.571Z,65.00
2018-05-10T08:59:02.855Z,64.60
2018-05-10T09:01:31.139Z,65.40
2018-05-10T09:03:59.459Z,64.50
2018-05-10T09:06:27.728Z,63.80
2018-05-10T09:08:56.793Z,63.90
2018-05-10T09:11:25.058Z,63.80
2018-05-10T09:13:53.327Z,66.00
2018-05-10T09:16:21.611Z,64.70
2018-05-10T09:18:49.972Z,62.00
2018-05-10T09:21:18.252Z,62.10
2018-05-10T09:23:46.580Z,59.80
2018-05-10T09:26:15.008Z,59.90
2018-05-10T09:28:43.271Z,60.70
2018-05-10T09:31:11.572Z,59.90
2018-05-10T09:33:39.836Z,58.90
2018-05-10T09:36:08.123Z,58.80
2018-05-10T09:38:36.374Z,58.10
2018-05-10T09:41:05.410Z,59.70
2018-05-10T09:43:33.708Z,59.60
2018-05-10T09:46:01.999Z,61.00
2018-05-10T09:48:30.259Z,63.60
2018-05-10T09:50:58.533Z,64.40
2018-05-10T09:53:26.794Z,65.40
2018-05-10T09:55:55.075Z,65.50
2018-05-10T09:58:23.809Z,67.90
2018-05-10T10:00:52.155Z,72.50
2018-05-10T10:03:20.622Z,70.90
2018-05-10T10:05:48.902Z,73.70
2018-05-10T10:08:17.163Z,73.50
2018-05-10T10:10:45.586Z,74.00
2018-05-10T10:13:15.896Z,76.80
2018-05-10T10:15:44.403Z,75.20
2018-05-10T10:18:12.792Z,75.80
2018-05-10T10:20:43.338Z,74.70
2018-05-10T10:23:11.703Z,75.80
2018-05-10T10:25:40.572Z,76.50
2018-05-10T10:28:08.837Z,77.10
2018-05-10T10:30:37.460Z,76.30
2018-05-10T10:33:05.889Z,79.00
2018-05-10T10:35:34.002Z,81.90
2018-05-10T10:38:02.945Z,82.20
2018-05-10T10:40:31.471Z,84.40
2018-05-10T10:43:00.167Z,81.60
2018-05-10T10:45:30.013Z,82.20
2018-05-10T10:47:59.202Z,84.00
2018-05-10T10:50:29.961Z,83.10
2018-05-10T10:52:58.320Z,82.80
2018-05-10T10:55:30.556Z,82.10
2018-05-10T10:57:59.299Z,81.90
2018-05-10T11:00:27.474Z,82.90
2018-05-10T11:02:57.018Z,83.50
2018-05-10T11:05:25.982Z,84.40
2018-05-10T11:07:53.841Z,84.50
2018-05-10T11:10:23.152Z,86.00
2018-05-10T11:12:52.515Z,85.40
2018-05-10T11:15:24.243Z,87.50
2018-05-10T11:17:52.753Z,87.50
2018-05-10T11:20:22.591Z,86.40
2018-05-10T11:22:53.862Z,88.20
2018-05-10T11:25:24.827Z,87.50
2018-05-10T11:27:53.800Z,89.00
2018-05-10T11:30:22.518Z,86.70
2018-05-10T11:32:51.158Z,86.10
2018-05-10T11:35:21.269Z,84.90
2018-05-10T11:37:51.049Z,83.90
2018-05-10T11:40:20.002Z,85.90
2018-05-10T11:42:48.362Z,85.10
2018-05-10T11:45:18.783Z,84.20
2018-05-10T11:47:49.084Z,83.80
2018-05-10T11:50:17.434Z,85.40
2018-05-10T11:52:45.765Z,86.00
2018-05-10T11:55:14.064Z,84.30
2018-05-10T11:57:42.435Z,84.70
2018-05-10T12:00:11.392Z,84.80
2018-05-10T12:02:41.729Z,84.50
2018-05-10T12:05:11.889Z,84.10
2018-05-10T12:07:40.965Z,85.20
2018-05-10T12:10:09.241Z,86.10
2018-05-10T12:12:37.562Z,86.10
2018-05-10T12:15:05.890Z,84.10
2018-05-10T12:17:34.306Z,83.30
2018-05-10T12:20:02.328Z,85.20
2018-05-10T12:22:31.520Z,86.90
2018-05-10T12:25:01.036Z,88.10
2018-05-10T12:27:30.802Z,84.00
2018-05-10T12:29:59.189Z,83.80
2018-05-10T12:32:27.596Z,83.40
2018-05-10T12:34:55.952Z,81.80
2018-05-10T12:37:24.433Z,83.10
2018-05-10T12:39:52.709Z,82.20
2018-05-10T12:42:21.044Z,80.10
2018-05-10T12:44:49.323Z,80.70
2018-05-10T12:47:17.605Z,80.50
2018-05-10T12:49:45.874Z,78.80
2018-05-10T12:52:14.666Z,79.50
2018-05-10T12:54:43.007Z,80.20
2018-05-10T12:57:11.652Z,79.80
2018-05-10T12:59:39.942Z,83.30
2018-05-10T13:02:07.821Z,84.20
2018-05-10T13:04:35.959Z,81.50
2018-05-10T13:07:05.384Z,82.50
2018-05-10T13:09:34.407Z,83.90
2018-05-10T13:12:02.315Z,83.90
2018-05-10T13:14:30.635Z,85.10
2018-05-10T13:16:59.498Z,83.70
2018-05-10T13:19:28.370Z,83.20
2018-05-10T13:21:57.630Z,82.50
2018-05-10T13:24:26.635Z,83.20
2018-05-10T13:26:55.050Z,84.00
2018-05-10T13:29:23.079Z,85.30
2018-05-10T13:31:51.181Z,86.50
2018-05-10T13:34:19.585Z,86.20
2018-05-10T13:36:48.851Z,85.70
2018-05-10T13:39:17.119Z,85.80
2018-05-10T13:41:45.762Z,86.80
2018-05-10T13:44:14.178Z,86.70
2018-05-10T13:46:43.502Z,87.50
2018-05-10T13:49:12.603Z,86.70
2018-05-10T13:51:41.408Z,86.80
2018-05-10T13:54:10.971Z,88.60
2018-05-10T13:56:39.924Z,89.70
2018-05-10T13:59:09.661Z,89.80
2018-05-10T14:01:39.724Z,90.10
2018-05-10T14:04:07.835Z,90.30
2018-05-10T14:06:37.028Z,90.40
2018-05-10T14:09:05.418Z,90.20
2018-05-10T14:11:34.062Z,90.50
2018-05-10T14:14:02.903Z,90.30
2018-05-10T14:16:33.392Z,90.30
2018-05-10T14:19:01.914Z,90.70
2018-05-10T14:21:30.177Z,90.30
2018-05-10T14:23:59.319Z,90.20
2018-05-10T14:26:27.935Z,90.20
2018-05-10T14:28:56.294Z,90.00
2018-05-10T14:31:25.492Z,89.40
2018-05-10T14:33:54.443Z,89.20
2018-05-10T14:36:23.682Z,90.00
2018-05-10T14:38:51.981Z,90.40
2018-05-10T14:41:20.008Z,89.60
2018-05-10T14:43:48.301Z,88.30
2018-05-10T14:46:16.335Z,89.10
2018-05-10T14:48:44.787Z,89.80
2018-05-10T14:51:14.200Z,90.30
2018-05-10T14:53:42.538Z,90.20
2018-05-10T14:56:11.511Z,90.20
2018-05-10T14:58:40.722Z,90.30
2018-05-10T15:01:09.581Z,90.00
2018-05-10T15:03:37.967Z,90.30
2018-05-10T15:06:06.227Z,90.80
2018-05-10T15:08:34.664Z,90.60
2018-05-10T15:11:02.927Z,90.60
2018-05-10T15:13:31.193Z,90.90
2018-05-10T15:15:59.464Z,90.90
2018-05-10T15:18:27.743Z,91.00
2018-05-10T15:20:56.775Z,90.40
2018-05-10T15:23:25.064Z,90.40
2018-05-10T15:25:53.853Z,90.70
2018-05-10T15:28:22.184Z,90.60
2018-05-10T15:30:50.446Z,91.30
2018-05-10T15:33:18.731Z,90.90
2018-05-10T15:35:47.003Z,91.10
2018-05-10T15:38:15.336Z,91.20
2018-05-10T15:40:43.647Z,90.70
2018-05-10T15:43:12.349Z,90.50
2018-05-10T15:45:40.607Z,90.70
2018-05-10T15:48:08.891Z,90.70
2018-05-10T15:50:37.218Z,90.90
2018-05-10T15:53:06.712Z,90.90
2018-05-10T15:55:35.212Z,90.20
2018-05-10T15:58:04.080Z,91.10
2018-05-10T16:00:32.723Z,89.10
2018-05-10T16:03:01.062Z,90.30
2018-05-10T16:05:29.319Z,90.30
2018-05-10T16:07:58.327Z,90.20
2018-05-10T16:10:26.615Z,90.30
2018-05-10T16:12:54.994Z,90.50
2018-05-10T16:15:23.934Z,90.40
2018-05-10T16:17:52.269Z,90.60
2018-05-10T16:20:20.810Z,90.20
2018-05-10T16:22:49.213Z,90.50
2018-05-10T16:25:17.495Z,90.60
2018-05-10T16:27:45.767Z,90.30
2018-05-10T16:30:14.064Z,87.20
2018-05-10T16:32:42.340Z,87.80
2018-05-10T16:35:10.614Z,88.30
2018-05-10T16:37:38.882Z,87.60
2018-05-10T16:40:07.162Z,90.20
2018-05-10T16:42:35.427Z,87.40
2018-05-10T16:45:03.703Z,88.80
2018-05-10T16:47:31.690Z,87.40
2018-05-10T16:49:59.967Z,89.70
2018-05-10T16:52:28.238Z,89.50
2018-05-10T16:54:56.539Z,90.10
2018-05-10T16:57:27.056Z,90.60
2018-05-10T16:59:59.350Z,90.70
2018-05-10T17:02:31.295Z,90.40
2018-05-10T17:05:04.401Z,91.00
2018-05-10T17:07:32.794Z,90.00
2018-05-10T17:10:03.349Z,91.00
2018-05-10T17:12:32.400Z,91.00
2018-05-10T17:15:00.747Z,88.70
2018-05-10T17:17:29.570Z,90.00
2018-05-10T17:19:57.859Z,91.20
2018-05-10T17:22:26.135Z,91.50
2018-05-10T17:24:55.394Z,91.60
2018-05-10T17:27:24.326Z,91.60
2018-05-10T17:29:52.683Z,91.80
2018-05-10T17:32:20.954Z,91.80
2018-05-10T17:34:49.433Z,92.20
2018-05-10T17:37:17.883Z,92.20
2018-05-10T17:39:47.194Z,92.50
2018-05-10T17:42:15.455Z,92.40
2018-05-10T17:44:44.653Z,92.60
2018-05-10T17:47:12.731Z,93.10
2018-05-10T17:49:41.734Z,92.60
2018-05-10T17:52:10.623Z,92.00
2018-05-10T17:54:38.922Z,91.20
2018-05-10T17:57:08.608Z,91.30
2018-05-10T17:59:36.903Z,91.30
2018-05-10T18:02:05.190Z,91.70
2018-05-10T18:04:33.842Z,91.80
2018-05-10T18:07:02.979Z,92.50
2018-05-10T18:09:32.048Z,91.80
2018-05-10T18:12:00.314Z,91.70
2018-05-10T18:14:28.597Z,91.90
2018-05-10T18:16:56.871Z,91.90
2018-05-10T18:19:25.414Z,91.90
2018-05-10T18:21:55.530Z,92.40
2018-05-10T18:24:23.886Z,92.40
2018-05-10T18:26:52.190Z,92.00
2018-05-10T18:29:20.472Z,92.60
2018-05-10T18:31:48.772Z,92.10
2018-05-10T18:34:17.081Z,92.00
2018-05-10T18:36:45.403Z,92.30
2018-05-10T18:39:13.798Z,92.80
2018-05-10T18:41:42.099Z,93.00
2018-05-10T18:44:10.378Z,93.00
2018-05-10T18:46:38.682Z,93.00
2018-05-10T18:49:06.959Z,92.70
2018-05-10T18:51:35.419Z,92.10
2018-05-10T18:54:03.683Z,92.00
2018-05-10T18:56:32.411Z,92.30
2018-05-10T18:59:01.767Z,92.10
2018-05-10T19:01:30.211Z,92.30
2018-05-10T19:03:58.496Z,91.30
2018-05-10T19:06:26.807Z,90.80
2018-05-10T19:08:55.118Z,90.40
2018-05-10T19:11:23.494Z,89.30
2018-05-10T19:13:52.552Z,90.10
2018-05-10T19:16:20.908Z,90.30
2018-05-10T19:18:49.261Z,89.70
2018-05-10T19:21:17.888Z,88.50
2018-05-10T19:23:46.555Z,88.30
2018-05-10T19:26:14.897Z,88.00
2018-05-10T19:28:43.960Z,87.10
2018-05-10T19:31:14.342Z,87.80
2018-05-10T19:33:42.694Z,87.70
2018-05-10T19:36:11.134Z,87.20
2018-05-10T19:38:40.187Z,89.00
2018-05-10T19:41:08.495Z,90.30
2018-05-10T19:43:36.746Z,90.10
2018-05-10T19:46:05.015Z,88.00
2018-05-10T19:48:33.383Z,87.90
2018-05-10T19:51:01.800Z,89.00
2018-05-10T19:56:29.524Z,87.00
2018-05-10T19:58:58.650Z,88.70
2018-05-10T20:01:28.005Z,88.70
2018-05-10T20:03:57.122Z,89.70
2018-05-10T20:06:25.429Z,89.70
2018-05-10T20:08:53.825Z,88.70
2018-05-10T20:11:22.011Z,87.60
2018-05-10T20:13:50.341Z,90.30
2018-05-10T20:16:18.837Z,90.90
2018-05-10T20:18:47.130Z,90.80
2018-05-10T20:21:15.526Z,88.90
2018-05-10T20:23:44.803Z,90.20
2018-05-10T20:26:13.292Z,90.20
2018-05-10T20:28:41.437Z,90.30
2018-05-10T20:31:10.690Z,90.20
2018-05-10T20:33:39.147Z,90.20
2018-05-10T20:36:07.514Z,90.80
2018-05-10T20:38:35.851Z,90.10
2018-05-10T20:41:04.150Z,89.90
2018-05-10T20:43:32.484Z,90.90
2018-05-10T20:46:00.767Z,90.50
2018-05-10T20:48:29.081Z,91.00
2018-05-10T20:50:58.237Z,91.50
2018-05-10T20:53:26.604Z,91.50
2018-05-10T20:55:54.954Z,91.50
2018-05-10T20:58:23.382Z,91.90
2018-05-10T21:00:51.663Z,91.80
2018-05-10T21:03:19.918Z,91.70
2018-05-10T21:05:48.190Z,91.40
2018-05-10T21:08:18.538Z,91.80
2018-05-10T21:10:46.889Z,92.10
2018-05-10T21:13:15.390Z,91.80
2018-05-10T21:15:43.722Z,91.70
2018-05-10T21:18:11.989Z,91.30
2018-05-10T21:20:41.036Z,91.60
2018-05-10T21:23:09.320Z,91.60
2018-05-10T21:25:37.804Z,91.40
2018-05-10T21:28:06.063Z,91.50
2018-05-10T21:30:34.075Z,91.40
2018-05-10T21:33:02.373Z,91.40
2018-05-10T21:35:30.625Z,91.70
2018-05-10T21:37:58.912Z,90.70
2018-05-10T21:40:27.163Z,91.40
2018-05-10T21:42:55.488Z,91.20
2018-05-10T21:45:24.111Z,91.30
2018-05-10T21:47:52.423Z,91.20
2018-05-10T21:50:20.439Z,91.70
2018-05-10T21:52:48.735Z,91.60
2018-05-10T21:55:16.979Z,91.80
2018-05-10T21:57:46.315Z,91.80
2018-05-10T22:00:14.655Z,91.70
2018-05-10T22:02:42.937Z,92.10
2018-05-10T22:05:11.197Z,92.20
2018-05-10T22:07:39.479Z,92.00
2018-05-10T22:10:07.738Z,91.90
2018-05-10T22:12:36.017Z,91.70
2018-05-10T22:15:04.041Z,91.90
2018-05-10T22:17:32.323Z,91.70
2018-05-10T22:20:00.588Z,91.90
2018-05-10T22:22:29.324Z,91.80
2018-05-10T22:24:57.742Z,91.80
2018-05-10T22:27:26.793Z,92.10
2018-05-10T22:29:55.059Z,92.10
2018-05-10T22:32:23.344Z,91.90
2018-05-10T22:34:51.374Z,92.00
2018-05-10T22:37:19.673Z,92.30
2018-05-10T22:39:47.927Z,92.00
2018-05-10T22:42:16.210Z,92.00
2018-05-10T22:44:44.463Z,91.90
2018-05-10T22:47:12.743Z,92.10
2018-05-10T22:49:41.009Z,91.80
2018-05-10T22:52:09.298Z,92.30
2018-05-10T22:54:37.563Z,92.30
2018-05-10T22:57:05.879Z,92.40
2018-05-10T22:59:34.147Z,92.20
2018-05-10T23:02:03.192Z,92.50
2018-05-10T23:04:31.497Z,92.50
2018-05-10T23:06:59.770Z,92.40
2018-05-10T23:09:28.024Z,92.20
2018-05-10T23:11:57.071Z,92.40
2018-05-10T23:14:26.101Z,92.80
2018-05-10T23:16:54.387Z,92.80
2018-05-10T23:19:22.647Z,93.00
2018-05-10T23:21:50.902Z,93.00
2018-05-10T23:24:19.375Z,92.90
2018-05-10T23:26:48.393Z,93.10
2018-05-10T23:29:17.652Z,93.10
2018-05-10T23:31:45.906Z,92.90
2018-05-10T23:34:14.189Z,92.80
2018-05-10T23:36:42.451Z,92.90
2018-05-10T23:39:10.719Z,92.80
2018-05-10T23:41:38.974Z,92.90
2018-05-10T23:44:07.243Z,92.70
2018-05-10T23:46:35.499Z,93.10
2018-05-10T23:49:03.772Z,93.20
2018-05-10T23:51:32.034Z,93.20
2018-05-10T23:54:00.307Z,93.30
2018-05-10T23:56:28.558Z,93.00
2018-05-10T23:58:56.831Z,93.10
